createdAt,value
2022-08-22T00:02:03.146Z,16.20
2022-08-22T00:02:58.277Z,22.97
2022-08-22T00:02:59.184Z,16.94
2022-08-22T00:02:59.527Z,19.44
2022-08-22T00:03:01.815Z,20.65
2022-08-22T00:04:37.803Z,16.15
2022-08-22T00:07:13.433Z,16.10
2022-08-22T00:09:46.611Z,16.05
2022-08-22T00:12:19.160Z,16.06
2022-08-22T00:14:53.554Z,16.01
2022-08-22T00:17:32.773Z,15.98
2022-08-22T00:20:08.211Z,15.91
2022-08-22T00:22:42.516Z,15.75
2022-08-22T00:25:26.804Z,15.79
2022-08-22T00:27:58.384Z,15.74
2022-08-22T00:30:26.656Z,15.65
2022-08-22T00:32:58.980Z,15.60
2022-08-22T00:35:32.345Z,15.56
2022-08-22T00:38:05.525Z,15.51
2022-08-22T00:40:47.151Z,15.43
2022-08-22T00:43:51.556Z,15.47
2022-08-22T00:46:56.229Z,15.43
2022-08-22T00:49:43.883Z,15.32
2022-08-22T00:52:45.916Z,15.38
2022-08-22T00:55:34.951Z,15.29
2022-08-22T00:58:30.054Z,15.25
2022-08-22T01:01:04.427Z,15.23
2022-08-22T01:04:05.746Z,15.22
2022-08-22T01:06:43.884Z,15.24
2022-08-22T01:09:35.474Z,15.25
2022-08-22T01:12:17.424Z,15.22
2022-08-22T01:14:49.186Z,15.18
2022-08-22T01:17:59.089Z,15.10
2022-08-22T01:20:59.205Z,15.02
2022-08-22T01:24:00.335Z,15.08
2022-08-22T01:27:01.650Z,14.98
2022-08-22T01:29:54.982Z,14.91
2022-08-22T01:32:57.342Z,14.88
2022-08-22T01:35:55.715Z,14.87
2022-08-22T01:39:01.894Z,14.85
2022-08-22T01:42:03.726Z,14.82
2022-08-22T01:44:49.984Z,14.65
2022-08-22T01:47:20.810Z,14.71
2022-08-22T01:49:53.773Z,14.60
2022-08-22T01:52:36.557Z,14.65
2022-08-22T01:55:10.264Z,14.60
2022-08-22T01:57:51.622Z,14.53
2022-08-22T02:00:35.064Z,14.55
2022-08-22T02:03:18.784Z,14.50
2022-08-22T02:05:52.049Z,14.42
2022-08-22T02:08:31.446Z,14.27
2022-08-22T02:11:03.387Z,14.35
2022-08-22T02:13:48.660Z,14.34
2022-08-22T02:16:20.776Z,14.32
2022-08-22T02:19:21.154Z,14.30
2022-08-22T02:21:55.988Z,14.17
2022-08-22T02:24:35.990Z,14.19
2022-08-22T02:27:11.808Z,14.12
2022-08-22T02:29:43.670Z,14.05
2022-08-22T02:32:22.396Z,13.99
2022-08-22T02:34:59.418Z,13.93
2022-08-22T02:37:34.406Z,13.90
2022-08-22T02:40:10.334Z,13.86
2022-08-22T02:42:42.774Z,13.87
2022-08-22T02:45:20.853Z,13.85
2022-08-22T02:47:56.234Z,13.79
2022-08-22T02:50:31.778Z,13.61
2022-08-22T02:53:05.521Z,13.72
2022-08-22T02:55:46.155Z,13.71
2022-08-22T02:58:23.097Z,13.66
2022-08-22T03:01:08.555Z,13.65
2022-08-22T03:03:40.139Z,13.59
2022-08-22T03:06:28.022Z,13.59
2022-08-22T03:09:07.185Z,13.52
2022-08-22T03:11:40.643Z,13.38
2022-08-22T03:14:15.756Z,13.39
2022-08-22T03:16:52.176Z,13.34
2022-08-22T03:19:27.592Z,13.32
2022-08-22T03:21:58.127Z,13.21
2022-08-22T03:24:32.047Z,13.30
2022-08-22T03:27:10.493Z,13.20
2022-08-22T03:29:39.947Z,13.26
2022-08-22T03:32:11.283Z,13.26
2022-08-22T03:34:53.306Z,13.23
2022-08-22T03:37:28.320Z,13.22
2022-08-22T03:40:00.962Z,13.17
2022-08-22T03:43:03.498Z,13.11
2022-08-22T03:46:02.028Z,13.08
2022-08-22T03:49:00.897Z,13.03
2022-08-22T03:51:54.740Z,12.99
2022-08-22T03:55:02.790Z,12.98
2022-08-22T03:58:19.166Z,12.89
2022-08-22T04:01:28.202Z,12.83
2022-08-22T04:04:28.456Z,12.66
2022-08-22T04:07:31.535Z,12.72
2022-08-22T04:10:22.312Z,12.69
2022-08-22T04:13:03.816Z,12.46
2022-08-22T04:15:53.137Z,12.50
2022-08-22T04:18:49.686Z,12.51
2022-08-22T04:21:41.715Z,12.56
2022-08-22T04:24:30.511Z,12.54
2022-08-22T04:27:02.465Z,12.54
2022-08-22T04:29:38.724Z,12.53
2022-08-22T04:32:12.799Z,12.53
2022-08-22T04:34:49.869Z,12.51
2022-08-22T04:37:23.540Z,12.48
2022-08-22T04:39:56.801Z,12.48
2022-08-22T04:42:33.577Z,12.48
2022-08-22T04:45:07.295Z,12.49
2022-08-22T04:47:39.350Z,12.48
2022-08-22T04:50:13.971Z,12.33
2022-08-22T04:52:56.170Z,12.51
2022-08-22T04:55:31.558Z,12.42
2022-08-22T04:58:09.555Z,12.32
2022-08-22T05:00:41.480Z,12.40
2022-08-22T05:03:12.149Z,12.48
2022-08-22T05:05:42.430Z,12.49
2022-08-22T05:08:12.604Z,12.49
2022-08-22T05:10:43.273Z,12.51
2022-08-22T05:13:15.290Z,12.55
2022-08-22T05:15:45.771Z,12.36
2022-08-22T05:18:19.801Z,12.61
2022-08-22T05:20:51.227Z,12.67
2022-08-22T05:23:21.401Z,12.54
2022-08-22T05:25:51.771Z,12.70
2022-08-22T05:28:31.170Z,12.64
2022-08-22T05:30:58.838Z,12.77
2022-08-22T05:33:30.095Z,12.76
2022-08-22T05:36:03.182Z,12.73
2022-08-22T05:38:33.515Z,12.86
2022-08-22T05:41:05.721Z,12.90
2022-08-22T05:43:36.979Z,13.07
2022-08-22T05:46:07.256Z,13.11
2022-08-22T05:48:40.320Z,13.15
2022-08-22T05:51:15.292Z,13.27
2022-08-22T05:53:47.355Z,13.41
2022-08-22T05:56:18.642Z,13.47
2022-08-22T05:58:52.749Z,13.42
2022-08-22T06:01:24.853Z,13.63
2022-08-22T06:03:59.434Z,13.71
2022-08-22T06:06:29.930Z,13.84
2022-08-22T06:09:02.243Z,13.93
2022-08-22T06:11:34.581Z,13.97
2022-08-22T06:14:13.181Z,14.12
2022-08-22T06:16:47.534Z,14.25
2022-08-22T06:19:19.221Z,14.34
2022-08-22T06:21:50.608Z,14.41
2022-08-22T06:24:20.503Z,14.50
2022-08-22T06:26:50.193Z,14.59
2022-08-22T06:29:28.860Z,14.72
2022-08-22T06:31:56.992Z,14.63
2022-08-22T06:34:26.292Z,14.96
2022-08-22T06:36:57.170Z,15.06
2022-08-22T06:43:11.367Z,15.22
2022-08-22T06:45:40.005Z,15.26
2022-08-22T06:48:15.290Z,15.55
2022-08-22T06:50:44.376Z,15.66
2022-08-22T06:53:16.713Z,15.83
2022-08-22T06:55:47.932Z,15.96
2022-08-22T06:58:17.238Z,16.11
2022-08-22T07:00:51.116Z,16.24
2022-08-22T07:03:36.716Z,16.39
2022-08-22T07:06:04.345Z,16.53
2022-08-22T07:08:38.899Z,16.67
2022-08-22T07:11:13.690Z,16.82
2022-08-22T07:13:45.395Z,16.97
2022-08-22T07:16:12.525Z,17.11
2022-08-22T07:18:47.347Z,17.22
2022-08-22T07:21:25.023Z,17.38
2022-08-22T07:23:54.342Z,17.50
2022-08-22T07:26:30.851Z,17.75
2022-08-22T07:29:04.464Z,17.83
2022-08-22T07:31:36.965Z,18.03
2022-08-22T07:34:23.553Z,18.09
2022-08-22T07:36:58.491Z,18.18
2022-08-22T07:39:31.399Z,18.27
2022-08-22T07:42:08.306Z,18.32
2022-08-22T07:44:41.318Z,18.40
2022-08-22T07:47:13.025Z,18.50
2022-08-22T07:49:49.672Z,18.61
2022-08-22T07:52:17.501Z,18.73
2022-08-22T07:54:51.559Z,18.87
2022-08-22T07:57:26.627Z,18.94
2022-08-22T07:59:56.079Z,19.15
2022-08-22T08:02:24.247Z,19.20
2022-08-22T08:04:54.758Z,19.40
2022-08-22T08:07:25.233Z,19.43
2022-08-22T08:09:57.509Z,19.59
2022-08-22T08:12:30.194Z,19.76
2022-08-22T08:14:57.738Z,19.91
2022-08-22T08:17:31.538Z,20.07
2022-08-22T08:20:03.357Z,20.17
2022-08-22T08:22:30.915Z,20.41
2022-08-22T08:25:00.324Z,20.51
2022-08-22T08:27:30.850Z,20.77
2022-08-22T08:30:01.065Z,20.82
2022-08-22T08:32:32.017Z,21.07
2022-08-22T08:35:02.349Z,21.22
2022-08-22T08:37:40.098Z,21.43
2022-08-22T08:40:20.451Z,21.50
2022-08-22T08:43:02.397Z,21.76
2022-08-22T08:45:52.787Z,22.08
2022-08-22T08:49:06.351Z,22.29
2022-08-22T08:51:52.026Z,22.30
2022-08-22T08:54:40.619Z,22.32
2022-08-22T08:57:20.324Z,22.32
2022-08-22T09:00:00.404Z,22.29
2022-08-22T09:02:48.899Z,22.44
2022-08-22T09:05:40.865Z,22.65
2022-08-22T09:08:40.119Z,23.05
2022-08-22T09:11:39.802Z,23.31
2022-08-22T09:14:22.838Z,23.38
2022-08-22T09:17:16.868Z,23.27
2022-08-22T09:20:15.461Z,23.60
2022-08-22T09:23:12.301Z,23.91
2022-08-22T09:25:45.658Z,24.01
2022-08-22T09:28:18.544Z,24.21
2022-08-22T09:30:58.283Z,24.33
2022-08-22T09:33:46.424Z,24.46
2022-08-22T09:36:23.377Z,24.64
2022-08-22T09:38:55.520Z,24.77
2022-08-22T09:41:38.886Z,24.78
2022-08-22T09:44:29.160Z,25.03
2022-08-22T09:47:05.970Z,25.23
2022-08-22T09:49:45.958Z,25.39
2022-08-22T09:52:33.281Z,25.57
2022-08-22T09:55:08.961Z,25.69
2022-08-22T09:57:42.257Z,25.69
2022-08-22T10:00:22.242Z,25.84
2022-08-22T10:03:17.853Z,26.16
2022-08-22T10:05:47.479Z,26.27
2022-08-22T10:08:25.538Z,26.40
2022-08-22T10:11:19.766Z,26.61
2022-08-22T10:14:00.481Z,26.72
2022-08-22T10:16:51.040Z,26.66
2022-08-22T10:19:26.539Z,26.83
2022-08-22T10:22:19.353Z,27.04
2022-08-22T10:24:55.521Z,27.22
2022-08-22T10:27:42.126Z,27.22
2022-08-22T10:30:13.214Z,27.23
2022-08-22T10:32:44.815Z,27.33
2022-08-22T10:35:21.569Z,27.32
2022-08-22T10:37:55.607Z,27.44
2022-08-22T10:40:29.823Z,27.41
2022-08-22T10:43:03.900Z,27.79
2022-08-22T10:45:36.681Z,27.87
2022-08-22T10:48:25.949Z,28.22
2022-08-22T10:51:11.491Z,28.32
2022-08-22T10:54:08.475Z,28.24
2022-08-22T10:56:46.021Z,28.36
2022-08-22T10:59:28.174Z,28.23
2022-08-22T11:02:08.200Z,28.40
2022-08-22T11:04:54.073Z,28.53
2022-08-22T11:07:48.732Z,28.77
2022-08-22T11:10:28.711Z,28.72
2022-08-22T11:13:12.322Z,28.83
2022-08-22T11:15:54.835Z,28.99
2022-08-22T11:18:35.134Z,29.02
2022-08-22T11:21:07.338Z,28.91
2022-08-22T11:23:42.263Z,29.31
2022-08-22T11:26:33.804Z,29.67
2022-08-22T11:29:32.390Z,30.06
2022-08-22T11:32:09.454Z,30.37
2022-08-22T11:34:48.442Z,30.58
2022-08-22T11:37:43.337Z,30.64
2022-08-22T11:40:24.545Z,30.74
2022-08-22T11:43:00.827Z,30.78
2022-08-22T11:45:36.955Z,30.54
2022-08-22T11:48:11.841Z,30.49
2022-08-22T11:50:45.136Z,30.41
2022-08-22T11:53:27.253Z,30.14
2022-08-22T11:56:12.725Z,30.03
2022-08-22T11:58:49.957Z,30.09
2022-08-22T12:01:21.810Z,30.20
2022-08-22T12:04:03.324Z,30.31
2022-08-22T12:06:50.264Z,30.31
2022-08-22T12:09:35.558Z,30.42
2022-08-22T12:12:33.830Z,30.58
2022-08-22T12:15:11.111Z,30.42
2022-08-22T12:18:21.311Z,30.46
2022-08-22T12:21:21.608Z,30.55
2022-08-22T12:24:11.317Z,30.67
2022-08-22T12:27:01.933Z,31.22
2022-08-22T12:29:51.274Z,31.17
2022-08-22T12:32:43.967Z,31.53
2022-08-22T12:35:29.709Z,31.92
2022-08-22T12:38:11.661Z,32.10
2022-08-22T12:41:27.807Z,32.11
2022-08-22T12:44:17.201Z,32.25
2022-08-22T12:47:01.095Z,32.37
2022-08-22T12:49:41.803Z,32.48
2022-08-22T12:52:32.430Z,32.60
2022-08-22T12:55:27.431Z,32.90
2022-08-22T12:58:04.139Z,33.13
2022-08-22T13:00:34.830Z,33.18
2022-08-22T13:03:07.018Z,33.39
2022-08-22T13:05:41.038Z,33.46
2022-08-22T13:08:13.409Z,33.38
2022-08-22T13:10:46.517Z,33.42
2022-08-22T13:13:36.526Z,33.67
2022-08-22T13:16:07.292Z,33.78
2022-08-22T13:18:45.501Z,33.52
2022-08-22T13:21:16.819Z,33.56
2022-08-22T13:23:47.011Z,33.63
2022-08-22T13:26:33.104Z,33.75
2022-08-22T13:29:24.702Z,33.67
2022-08-22T13:31:55.214Z,33.49
2022-08-22T13:34:39.600Z,33.19
2022-08-22T13:37:11.783Z,33.03
2022-08-22T13:39:42.058Z,32.74
2022-08-22T13:42:27.643Z,32.78
2022-08-22T13:45:02.469Z,32.37
2022-08-22T13:47:32.014Z,32.60
2022-08-22T13:50:09.028Z,32.65
2022-08-22T13:52:45.835Z,32.87
2022-08-22T13:55:27.626Z,32.98
2022-08-22T13:58:02.415Z,33.00
2022-08-22T14:01:17.810Z,33.02
2022-08-22T14:03:49.170Z,33.05
2022-08-22T14:06:37.768Z,33.02
2022-08-22T14:09:17.369Z,33.07
2022-08-22T14:12:06.821Z,33.46
2022-08-22T14:14:42.438Z,33.89
2022-08-22T14:17:15.409Z,34.16
2022-08-22T14:19:58.680Z,33.93
2022-08-22T14:22:34.791Z,33.83
2022-08-22T14:25:07.539Z,33.67
2022-08-22T14:27:37.723Z,33.36
2022-08-22T14:30:14.876Z,33.10
2022-08-22T14:32:45.757Z,33.07
2022-08-22T14:35:25.733Z,33.02
2022-08-22T14:38:17.365Z,32.82
2022-08-22T14:40:45.425Z,32.51
2022-08-22T14:43:22.488Z,32.29
2022-08-22T14:45:56.538Z,32.37
2022-08-22T14:48:31.049Z,32.42
2022-08-22T14:51:05.354Z,32.33
2022-08-22T14:53:35.644Z,32.29
2022-08-22T14:56:07.966Z,32.27
2022-08-22T14:58:49.076Z,32.35
2022-08-22T15:01:21.677Z,32.37
2022-08-22T15:03:54.769Z,32.34
2022-08-22T15:06:33.254Z,32.41
2022-08-22T15:09:07.852Z,32.33
2022-08-22T15:11:36.576Z,32.42
2022-08-22T15:14:07.633Z,32.20
2022-08-22T15:16:44.661Z,32.38
2022-08-22T15:19:25.010Z,32.33
2022-08-22T15:22:08.394Z,32.17
2022-08-22T15:24:43.062Z,32.00
2022-08-22T15:27:10.544Z,32.16
2022-08-22T15:29:49.955Z,32.32
2022-08-22T15:32:22.112Z,32.61
2022-08-22T15:34:49.196Z,32.77
2022-08-22T15:37:32.371Z,33.24
2022-08-22T15:40:12.027Z,33.70
2022-08-22T15:42:42.503Z,33.84
2022-08-22T15:45:20.833Z,33.75
2022-08-22T15:47:52.207Z,33.77
2022-08-22T15:50:30.913Z,33.64
2022-08-22T15:53:15.082Z,33.56
2022-08-22T15:56:20.594Z,33.41
2022-08-22T15:58:49.934Z,33.53
2022-08-22T16:01:20.473Z,33.67
2022-08-22T16:03:54.538Z,33.64
2022-08-22T16:06:40.532Z,33.63
2022-08-22T16:09:31.804Z,33.55
2022-08-22T16:12:04.143Z,33.25
2022-08-22T16:14:49.225Z,33.13
2022-08-22T16:17:45.605Z,33.06
2022-08-22T16:20:54.224Z,32.87
2022-08-22T16:23:21.239Z,32.77
2022-08-22T16:26:09.378Z,32.54
2022-08-22T16:28:58.597Z,32.40
2022-08-22T16:31:30.396Z,32.21
2022-08-22T16:34:18.664Z,32.04
2022-08-22T16:36:49.163Z,31.92
2022-08-22T16:39:38.778Z,31.72
2022-08-22T16:42:26.374Z,31.66
2022-08-22T16:45:10.462Z,31.60
2022-08-22T16:47:42.718Z,31.46
2022-08-22T16:50:32.231Z,31.36
2022-08-22T16:53:02.528Z,31.26
2022-08-22T16:55:42.806Z,31.14
2022-08-22T16:58:22.553Z,31.05
2022-08-22T17:00:58.686Z,30.95
2022-08-22T17:03:37.672Z,30.85
2022-08-22T17:06:19.019Z,30.71
2022-08-22T17:08:57.163Z,30.53
2022-08-22T17:11:35.106Z,30.45
2022-08-22T17:14:25.658Z,30.32
2022-08-22T17:17:12.505Z,30.14
2022-08-22T17:19:47.809Z,29.98
2022-08-22T17:22:29.256Z,29.86
2022-08-22T17:25:09.030Z,29.71
2022-08-22T17:27:39.583Z,29.59
2022-08-22T17:30:09.772Z,29.53
2022-08-22T17:33:03.672Z,29.46
2022-08-22T17:35:43.273Z,29.39
2022-08-22T17:38:26.642Z,29.31
2022-08-22T17:41:05.628Z,29.20
2022-08-22T17:43:49.650Z,28.92
2022-08-22T17:46:41.636Z,28.91
2022-08-22T17:49:22.408Z,28.80
2022-08-22T17:51:57.042Z,28.63
2022-08-22T17:54:31.953Z,28.55
2022-08-22T17:57:05.667Z,28.46
2022-08-22T17:59:39.666Z,28.37
2022-08-22T18:02:13.051Z,28.28
2022-08-22T18:04:47.589Z,28.18
2022-08-22T18:07:41.075Z,28.02
2022-08-22T18:10:12.431Z,27.92
2022-08-22T18:12:47.731Z,27.80
2022-08-22T18:15:25.035Z,27.72
2022-08-22T18:17:58.124Z,27.62
2022-08-22T18:20:33.210Z,27.54
2022-08-22T18:23:21.522Z,27.44
2022-08-22T18:26:03.602Z,27.31
2022-08-22T18:28:39.031Z,27.16
2022-08-22T18:31:08.743Z,27.14
2022-08-22T18:33:41.369Z,27.01
2022-08-22T18:36:19.936Z,26.81
2022-08-22T18:38:53.760Z,26.78
2022-08-22T18:41:28.692Z,26.66
2022-08-22T18:43:58.770Z,26.55
2022-08-22T18:46:41.151Z,26.48
2022-08-22T18:49:33.264Z,26.36
2022-08-22T18:52:21.768Z,26.21
2022-08-22T18:55:11.127Z,26.03
2022-08-22T18:57:55.591Z,26.02
2022-08-22T19:00:25.592Z,25.93
2022-08-22T19:03:12.954Z,25.86
2022-08-22T19:06:07.529Z,25.73
2022-08-22T19:09:10.783Z,25.61
2022-08-22T19:11:51.449Z,25.52
2022-08-22T19:14:32.793Z,25.35
2022-08-22T19:17:20.101Z,25.35
2022-08-22T19:19:59.113Z,25.29
2022-08-22T19:22:28.317Z,25.25
2022-08-22T19:25:16.662Z,25.15
2022-08-22T19:27:46.502Z,25.08
2022-08-22T19:30:42.406Z,25.01
2022-08-22T19:33:11.662Z,24.82
2022-08-22T19:35:44.677Z,24.62
2022-08-22T19:38:12.117Z,24.50
2022-08-22T19:40:53.055Z,24.54
2022-08-22T19:43:28.054Z,24.43
2022-08-22T19:45:55.892Z,24.33
2022-08-22T19:48:25.897Z,24.16
2022-08-22T19:51:09.164Z,24.12
2022-08-22T19:53:50.251Z,23.99
2022-08-22T19:56:42.678Z,23.87
2022-08-22T19:59:22.173Z,23.82
2022-08-22T20:01:57.710Z,23.76
2022-08-22T20:04:49.878Z,23.72
2022-08-22T20:07:28.651Z,23.63
2022-08-22T20:10:06.451Z,23.49
2022-08-22T20:12:44.198Z,23.50
2022-08-22T20:15:17.980Z,23.37
2022-08-22T20:18:11.659Z,23.22
2022-08-22T20:20:59.083Z,23.03
2022-08-22T20:23:30.355Z,22.89
2022-08-22T20:25:58.322Z,22.82
2022-08-22T20:28:35.050Z,22.80
2022-08-22T20:31:06.512Z,22.63
2022-08-22T20:33:36.571Z,22.66
2022-08-22T20:36:24.236Z,22.59
2022-08-22T20:38:58.705Z,22.37
2022-08-22T20:41:32.343Z,22.45
2022-08-22T20:44:06.232Z,22.41
2022-08-22T20:46:53.635Z,22.42
2022-08-22T20:49:24.787Z,22.38
2022-08-22T20:51:54.758Z,22.34
2022-08-22T20:54:24.219Z,22.17
2022-08-22T20:56:54.165Z,22.24
2022-08-22T20:59:26.631Z,22.16
2022-08-22T21:01:58.713Z,22.18
2022-08-22T21:04:28.142Z,22.15
2022-08-22T21:07:02.024Z,22.10
2022-08-22T21:09:29.493Z,22.05
2022-08-22T21:11:58.091Z,21.96
2022-08-22T21:14:31.452Z,21.96
2022-08-22T21:16:58.297Z,21.95
2022-08-22T21:19:27.546Z,21.95
2022-08-22T21:22:09.623Z,21.92
2022-08-22T21:24:36.328Z,21.76
2022-08-22T21:27:03.496Z,21.75
2022-08-22T21:29:42.566Z,21.70
2022-08-22T21:32:24.382Z,21.64
2022-08-22T21:34:52.206Z,21.57
2022-08-22T21:37:27.605Z,21.54
2022-08-22T21:40:00.427Z,21.42
2022-08-22T21:42:31.886Z,21.41
2022-08-22T21:45:02.833Z,21.35
2022-08-22T21:47:33.902Z,21.28
2022-08-22T21:50:04.619Z,21.22
2022-08-22T21:52:33.337Z,21.14
2022-08-22T21:55:14.339Z,21.14
2022-08-22T21:57:40.995Z,21.00
2022-08-22T22:00:41.146Z,21.08
2022-08-22T22:03:17.596Z,21.01
2022-08-22T22:05:44.257Z,20.87
2022-08-22T22:08:11.299Z,20.96
2022-08-22T22:10:38.893Z,20.92
2022-08-22T22:13:05.825Z,20.88
2022-08-22T22:15:36.464Z,20.86
2022-08-22T22:18:03.591Z,20.82
2022-08-22T22:20:30.170Z,20.77
2022-08-22T22:22:56.849Z,20.58
2022-08-22T22:25:39.506Z,20.59
2022-08-22T22:28:12.738Z,20.38
2022-08-22T22:30:41.907Z,20.40
2022-08-22T22:33:08.707Z,20.35
2022-08-22T22:35:37.825Z,20.30
2022-08-22T22:38:04.530Z,20.21
2022-08-22T22:40:31.264Z,20.16
2022-08-22T22:42:57.957Z,20.09
2022-08-22T22:45:24.562Z,20.03
2022-08-22T22:47:52.523Z,19.86
2022-08-22T22:50:19.450Z,19.91
2022-08-22T22:52:46.027Z,19.85
2022-08-22T22:55:12.599Z,19.77
2022-08-22T22:57:51.395Z,19.69
2022-08-22T23:00:29.170Z,19.64
2022-08-22T23:03:00.363Z,19.58
2022-08-22T23:05:27.459Z,19.50
2022-08-22T23:07:54.061Z,19.49
2022-08-22T23:10:22.258Z,19.42
2022-08-22T23:12:49.054Z,19.35
2022-08-22T23:15:15.733Z,19.28
2022-08-22T23:17:42.571Z,19.21
2022-08-22T23:20:10.901Z,19.17
2022-08-22T23:22:37.544Z,19.16
2022-08-22T23:25:04.836Z,19.07
2022-08-22T23:27:31.451Z,18.97
2022-08-22T23:29:58.052Z,18.87
2022-08-22T23:32:24.737Z,18.79
2022-08-22T23:34:51.293Z,18.72
2022-08-22T23:37:21.468Z,18.70
2022-08-22T23:39:48.454Z,18.65
2022-08-22T23:42:15.665Z,18.57
2022-08-22T23:44:43.614Z,18.50
2022-08-22T23:47:10.485Z,18.40
2022-08-22T23:49:38.562Z,18.31
2022-08-22T23:52:05.564Z,18.28
2022-08-22T23:54:33.988Z,18.21
2022-08-22T23:57:02.827Z,18.17
2022-08-22T23:59:40.728Z,18.09
